Portada
METAR-TAF:

METAR-TAF

Aeropuertos :

Petropavl, Kazajistán

latitud: 54-46-28N, longitud: 069-11-06E, altitud: 139 m

Observación

El informe se hizo hace 31 minutos, a las 07:30 UTC
Viento 27 kt del suroeste
Temperatura 24°C
Humedad 24%
Presión 1002 hPa
Visibilidad 10 km o más
sin nubes por debajo de 1500 m y sin presencia de cumulonimbus.

METAR: UACP 240730Z 23014MPS CAVOK 24/02 Q1002 R23/0/0060 NOSIG RMK QFE739/0985

Hora: 14:01 (08:01 UTC)

Pronóstico

El informe se hizo hace 2 horas y 57 minutos, a las 05:04 UTC
Pronóstico válido del 24 a las 06 UTC al 24 a las 15 UTC
Viento 19 kt del sur-suroeste
Visibilidad 10 km o más
Nubes dispersas a una altura de 2000 ft
Temporalmente
del 24 a las 06 UTC al 24 a las 12 UTC
Viento 25 kt del sur-suroeste con ráfagas de 35 kt

TAF: UACP 240504Z 2406/2415 21010MPS 9999 SCT020 TEMPO 2406/2412 21013G18MPS

Observaciones y pronósticos meteorológicos de más de 4000 aeropuertos (mensajes METAR y TAF).

Los puntos amarillos y rojos representan las estaciones disponibles.

Ponga el ratón en el punto deseado para ver el nombre de la estación.

Haga clic para ver las observaciones y los pronósticos meteorológicos.

Para cambiar el mapa : haga clic en los botones verdes con una cruz de color negro para hacer un zoom, en el botón verde con un guión para alejar o en las flechas verdes para mapas adyacentes.


METAR-TAF: